sensor_id;sensor_type;location;lat;lon;timestamp;P1;durP1;ratioP1;P2;durP2;ratioP2
11287;SDS011;5700;50.996;7.044;2022-07-29T00:01:41;2.53;;;0.88;;
11287;SDS011;5700;50.996;7.044;2022-07-29T00:04:43;3.13;;;1.23;;
11287;SDS011;5700;50.996;7.044;2022-07-29T00:07:45;3.50;;;1.58;;
11287;SDS011;5700;50.996;7.044;2022-07-29T00:10:47;1.90;;;1.00;;
11287;SDS011;5700;50.996;7.044;2022-07-29T00:13:48;1.63;;;1.00;;
11287;SDS011;5700;50.996;7.044;2022-07-29T00:16:50;5.22;;;1.30;;
11287;SDS011;5700;50.996;7.044;2022-07-29T00:19:51;2.70;;;0.90;;
11287;SDS011;5700;50.996;7.044;2022-07-29T00:22:54;2.35;;;1.08;;
11287;SDS011;5700;50.996;7.044;2022-07-29T00:25:56;2.35;;;1.00;;
11287;SDS011;5700;50.996;7.044;2022-07-29T00:28:57;2.47;;;1.00;;
11287;SDS011;5700;50.996;7.044;2022-07-29T00:31:59;4.63;;;0.88;;
11287;SDS011;5700;50.996;7.044;2022-07-29T00:35:00;3.90;;;1.02;;
11287;SDS011;5700;50.996;7.044;2022-07-29T00:38:18;3.75;;;0.90;;
11287;SDS011;5700;50.996;7.044;2022-07-29T00:41:20;2.15;;;1.00;;
11287;SDS011;5700;50.996;7.044;2022-07-29T00:44:21;2.13;;;0.88;;
11287;SDS011;5700;50.996;7.044;2022-07-29T00:47:23;4.43;;;1.30;;
11287;SDS011;5700;50.996;7.044;2022-07-29T00:50:25;2.35;;;0.85;;
11287;SDS011;5700;50.996;7.044;2022-07-29T00:53:28;4.25;;;0.90;;
11287;SDS011;5700;50.996;7.044;2022-07-29T00:56:31;3.08;;;1.13;;
11287;SDS011;5700;50.996;7.044;2022-07-29T00:59:33;3.03;;;1.10;;
11287;SDS011;5700;50.996;7.044;2022-07-29T01:02:35;4.00;;;1.42;;
11287;SDS011;5700;50.996;7.044;2022-07-29T01:05:36;2.55;;;1.10;;
11287;SDS011;5700;50.996;7.044;2022-07-29T01:08:39;2.67;;;1.20;;
11287;SDS011;5700;50.996;7.044;2022-07-29T01:11:41;1.55;;;1.10;;
11287;SDS011;5700;50.996;7.044;2022-07-29T01:14:43;4.97;;;1.10;;
11287;SDS011;5700;50.996;7.044;2022-07-29T01:17:46;2.15;;;0.95;;
11287;SDS011;5700;50.996;7.044;2022-07-29T01:20:58;3.55;;;1.15;;
11287;SDS011;5700;50.996;7.044;2022-07-29T01:24:18;2.42;;;1.52;;
11287;SDS011;5700;50.996;7.044;2022-07-29T01:27:32;3.10;;;1.00;;
11287;SDS011;5700;50.996;7.044;2022-07-29T01:30:41;4.80;;;1.48;;
11287;SDS011;5700;50.996;7.044;2022-07-29T01:33:43;1.17;;;0.95;;
11287;SDS011;5700;50.996;7.044;2022-07-29T01:36:51;6.47;;;1.13;;
11287;SDS011;5700;50.996;7.044;2022-07-29T01:39:57;6.25;;;1.63;;
11287;SDS011;5700;50.996;7.044;2022-07-29T01:43:00;1.65;;;1.15;;
11287;SDS011;5700;50.996;7.044;2022-07-29T01:46:09;7.65;;;1.20;;
11287;SDS011;5700;50.996;7.044;2022-07-29T01:49:14;2.10;;;1.10;;
11287;SDS011;5700;50.996;7.044;2022-07-29T01:52:20;2.05;;;1.15;;
11287;SDS011;5700;50.996;7.044;2022-07-29T01:55:24;2.08;;;1.15;;
11287;SDS011;5700;50.996;7.044;2022-07-29T01:58:28;4.88;;;1.30;;
11287;SDS011;5700;50.996;7.044;2022-07-29T02:01:31;4.53;;;1.27;;
11287;SDS011;5700;50.996;7.044;2022-07-29T02:04:34;2.30;;;1.38;;
11287;SDS011;5700;50.996;7.044;2022-07-29T02:07:37;3.90;;;1.13;;
11287;SDS011;5700;50.996;7.044;2022-07-29T02:10:39;3.85;;;1.00;;
11287;SDS011;5700;50.996;7.044;2022-07-29T02:13:41;2.60;;;0.93;;
11287;SDS011;5700;50.996;7.044;2022-07-29T02:16:44;3.72;;;1.05;;
11287;SDS011;5700;50.996;7.044;2022-07-29T02:19:47;3.85;;;1.42;;
11287;SDS011;5700;50.996;7.044;2022-07-29T02:22:48;2.90;;;1.10;;
11287;SDS011;5700;50.996;7.044;2022-07-29T02:25:52;1.60;;;0.95;;
11287;SDS011;5700;50.996;7.044;2022-07-29T02:28:56;4.07;;;1.20;;
11287;SDS011;5700;50.996;7.044;2022-07-29T02:31:59;2.75;;;1.20;;
11287;SDS011;5700;50.996;7.044;2022-07-29T02:35:02;2.35;;;1.20;;
11287;SDS011;5700;50.996;7.044;2022-07-29T02:38:04;4.38;;;1.25;;
11287;SDS011;5700;50.996;7.044;2022-07-29T02:41:20;1.45;;;0.85;;
11287;SDS011;5700;50.996;7.044;2022-07-29T02:44:25;4.60;;;1.30;;
11287;SDS011;5700;50.996;7.044;2022-07-29T02:47:30;3.58;;;1.50;;
11287;SDS011;5700;50.996;7.044;2022-07-29T02:50:37;2.13;;;1.00;;
11287;SDS011;5700;50.996;7.044;2022-07-29T02:53:40;2.90;;;1.63;;
11287;SDS011;5700;50.996;7.044;2022-07-29T02:56:43;6.65;;;1.50;;
11287;SDS011;5700;50.996;7.044;2022-07-29T02:59:45;2.13;;;1.35;;
11287;SDS011;5700;50.996;7.044;2022-07-29T03:02:51;2.65;;;1.23;;
11287;SDS011;5700;50.996;7.044;2022-07-29T03:05:53;3.08;;;1.48;;
11287;SDS011;5700;50.996;7.044;2022-07-29T03:08:56;3.78;;;1.13;;
11287;SDS011;5700;50.996;7.044;2022-07-29T03:11:58;2.10;;;1.20;;
11287;SDS011;5700;50.996;7.044;2022-07-29T03:15:01;1.73;;;1.15;;
11287;SDS011;5700;50.996;7.044;2022-07-29T03:18:04;3.90;;;1.50;;
11287;SDS011;5700;50.996;7.044;2022-07-29T03:21:06;5.40;;;1.77;;
11287;SDS011;5700;50.996;7.044;2022-07-29T03:24:09;5.63;;;1.67;;
11287;SDS011;5700;50.996;7.044;2022-07-29T03:27:10;2.58;;;1.20;;
11287;SDS011;5700;50.996;7.044;2022-07-29T03:30:12;3.08;;;1.38;;
11287;SDS011;5700;50.996;7.044;2022-07-29T03:33:15;4.13;;;1.50;;
11287;SDS011;5700;50.996;7.044;2022-07-29T03:36:17;4.07;;;1.60;;
11287;SDS011;5700;50.996;7.044;2022-07-29T03:39:20;3.50;;;1.50;;
11287;SDS011;5700;50.996;7.044;2022-07-29T03:42:24;3.85;;;1.40;;
11287;SDS011;5700;50.996;7.044;2022-07-29T03:45:28;2.92;;;1.45;;
11287;SDS011;5700;50.996;7.044;2022-07-29T03:48:32;4.18;;;1.63;;
11287;SDS011;5700;50.996;7.044;2022-07-29T03:51:36;3.53;;;1.65;;
11287;SDS011;5700;50.996;7.044;2022-07-29T03:54:38;7.82;;;1.50;;
11287;SDS011;5700;50.996;7.044;2022-07-29T03:57:40;6.50;;;1.30;;
11287;SDS011;5700;50.996;7.044;2022-07-29T04:00:42;4.72;;;1.15;;
11287;SDS011;5700;50.996;7.044;2022-07-29T04:03:45;4.68;;;1.52;;
11287;SDS011;5700;50.996;7.044;2022-07-29T04:06:47;3.95;;;1.83;;
11287;SDS011;5700;50.996;7.044;2022-07-29T04:09:48;4.25;;;1.58;;
11287;SDS011;5700;50.996;7.044;2022-07-29T04:12:50;2.80;;;1.52;;
11287;SDS011;5700;50.996;7.044;2022-07-29T04:15:51;3.45;;;1.45;;
11287;SDS011;5700;50.996;7.044;2022-07-29T04:18:54;6.93;;;1.52;;
11287;SDS011;5700;50.996;7.044;2022-07-29T04:21:55;2.42;;;1.48;;
11287;SDS011;5700;50.996;7.044;2022-07-29T04:24:57;4.70;;;1.60;;
11287;SDS011;5700;50.996;7.044;2022-07-29T04:27:59;3.10;;;1.20;;
11287;SDS011;5700;50.996;7.044;2022-07-29T04:31:00;3.80;;;1.23;;
11287;SDS011;5700;50.996;7.044;2022-07-29T04:34:03;4.70;;;1.45;;
11287;SDS011;5700;50.996;7.044;2022-07-29T04:37:05;2.13;;;1.17;;
11287;SDS011;5700;50.996;7.044;2022-07-29T04:40:06;4.90;;;1.33;;
11287;SDS011;5700;50.996;7.044;2022-07-29T04:43:08;4.75;;;1.60;;
11287;SDS011;5700;50.996;7.044;2022-07-29T04:46:10;5.10;;;1.58;;
11287;SDS011;5700;50.996;7.044;2022-07-29T04:49:12;6.68;;;1.15;;
11287;SDS011;5700;50.996;7.044;2022-07-29T04:52:14;5.03;;;1.30;;
11287;SDS011;5700;50.996;7.044;2022-07-29T04:55:15;4.15;;;1.27;;
11287;SDS011;5700;50.996;7.044;2022-07-29T04:58:17;5.35;;;1.48;;
11287;SDS011;5700;50.996;7.044;2022-07-29T05:01:18;4.80;;;1.23;;
11287;SDS011;5700;50.996;7.044;2022-07-29T05:04:21;3.53;;;1.40;;
11287;SDS011;5700;50.996;7.044;2022-07-29T05:07:23;5.28;;;1.38;;
11287;SDS011;5700;50.996;7.044;2022-07-29T05:10:25;4.70;;;1.38;;
11287;SDS011;5700;50.996;7.044;2022-07-29T05:13:26;2.17;;;0.82;;
11287;SDS011;5700;50.996;7.044;2022-07-29T05:16:28;6.10;;;1.25;;
11287;SDS011;5700;50.996;7.044;2022-07-29T05:19:31;5.00;;;1.13;;
11287;SDS011;5700;50.996;7.044;2022-07-29T05:22:32;2.53;;;1.20;;
11287;SDS011;5700;50.996;7.044;2022-07-29T05:25:34;4.07;;;1.33;;
11287;SDS011;5700;50.996;7.044;2022-07-29T05:28:35;3.80;;;1.20;;
11287;SDS011;5700;50.996;7.044;2022-07-29T05:31:37;3.72;;;1.00;;
11287;SDS011;5700;50.996;7.044;2022-07-29T05:34:40;3.72;;;1.30;;
11287;SDS011;5700;50.996;7.044;2022-07-29T05:37:42;3.67;;;1.30;;
11287;SDS011;5700;50.996;7.044;2022-07-29T05:40:43;3.47;;;1.15;;
11287;SDS011;5700;50.996;7.044;2022-07-29T05:43:45;6.00;;;1.45;;
11287;SDS011;5700;50.996;7.044;2022-07-29T05:46:46;3.90;;;1.40;;
11287;SDS011;5700;50.996;7.044;2022-07-29T05:49:49;3.85;;;1.35;;
11287;SDS011;5700;50.996;7.044;2022-07-29T05:52:51;3.63;;;1.35;;
11287;SDS011;5700;50.996;7.044;2022-07-29T05:55:52;4.25;;;1.20;;
11287;SDS011;5700;50.996;7.044;2022-07-29T05:58:54;3.65;;;1.40;;
11287;SDS011;5700;50.996;7.044;2022-07-29T06:01:56;4.35;;;1.00;;
11287;SDS011;5700;50.996;7.044;2022-07-29T06:04:59;2.80;;;0.98;;
11287;SDS011;5700;50.996;7.044;2022-07-29T06:08:00;4.35;;;1.00;;
11287;SDS011;5700;50.996;7.044;2022-07-29T06:11:02;2.53;;;1.20;;
11287;SDS011;5700;50.996;7.044;2022-07-29T06:14:04;4.25;;;1.08;;
11287;SDS011;5700;50.996;7.044;2022-07-29T06:17:06;7.70;;;1.35;;
11287;SDS011;5700;50.996;7.044;2022-07-29T06:20:09;7.28;;;1.52;;
11287;SDS011;5700;50.996;7.044;2022-07-29T06:23:11;3.85;;;1.00;;
11287;SDS011;5700;50.996;7.044;2022-07-29T06:26:12;5.22;;;1.38;;
11287;SDS011;5700;50.996;7.044;2022-07-29T06:29:14;5.70;;;1.30;;
11287;SDS011;5700;50.996;7.044;2022-07-29T06:32:15;3.08;;;1.20;;
11287;SDS011;5700;50.996;7.044;2022-07-29T06:35:18;3.38;;;1.08;;
11287;SDS011;5700;50.996;7.044;2022-07-29T06:38:20;2.88;;;1.17;;
11287;SDS011;5700;50.996;7.044;2022-07-29T06:41:21;2.45;;;1.00;;
11287;SDS011;5700;50.996;7.044;2022-07-29T06:44:23;1.95;;;0.82;;
11287;SDS011;5700;50.996;7.044;2022-07-29T06:47:25;2.60;;;1.17;;
11287;SDS011;5700;50.996;7.044;2022-07-29T06:50:28;6.45;;;1.50;;
11287;SDS011;5700;50.996;7.044;2022-07-29T06:53:29;4.55;;;1.25;;
11287;SDS011;5700;50.996;7.044;2022-07-29T06:56:32;3.33;;;1.35;;
11287;SDS011;5700;50.996;7.044;2022-07-29T06:59:35;2.90;;;1.33;;
11287;SDS011;5700;50.996;7.044;2022-07-29T07:02:36;7.80;;;1.42;;
11287;SDS011;5700;50.996;7.044;2022-07-29T07:05:39;3.75;;;1.40;;
11287;SDS011;5700;50.996;7.044;2022-07-29T07:08:41;3.50;;;1.13;;
11287;SDS011;5700;50.996;7.044;2022-07-29T07:11:42;3.33;;;1.00;;
11287;SDS011;5700;50.996;7.044;2022-07-29T07:14:44;3.90;;;1.20;;
11287;SDS011;5700;50.996;7.044;2022-07-29T07:17:45;2.72;;;1.20;;
11287;SDS011;5700;50.996;7.044;2022-07-29T07:20:48;3.03;;;1.10;;
11287;SDS011;5700;50.996;7.044;2022-07-29T07:23:49;3.83;;;1.30;;
11287;SDS011;5700;50.996;7.044;2022-07-29T07:26:51;7.90;;;1.15;;
11287;SDS011;5700;50.996;7.044;2022-07-29T07:29:52;3.30;;;1.08;;
11287;SDS011;5700;50.996;7.044;2022-07-29T07:32:54;4.22;;;1.30;;
11287;SDS011;5700;50.996;7.044;2022-07-29T07:35:57;3.08;;;1.20;;
11287;SDS011;5700;50.996;7.044;2022-07-29T07:38:58;5.25;;;1.55;;
11287;SDS011;5700;50.996;7.044;2022-07-29T07:42:00;3.65;;;1.08;;
11287;SDS011;5700;50.996;7.044;2022-07-29T07:45:01;3.25;;;1.20;;
11287;SDS011;5700;50.996;7.044;2022-07-29T07:48:03;2.35;;;1.10;;
11287;SDS011;5700;50.996;7.044;2022-07-29T07:51:06;4.55;;;1.27;;
11287;SDS011;5700;50.996;7.044;2022-07-29T07:54:08;4.13;;;1.05;;
11287;SDS011;5700;50.996;7.044;2022-07-29T07:57:09;2.00;;;1.20;;
11287;SDS011;5700;50.996;7.044;2022-07-29T08:00:11;2.78;;;1.13;;
11287;SDS011;5700;50.996;7.044;2022-07-29T08:03:14;2.25;;;1.02;;
11287;SDS011;5700;50.996;7.044;2022-07-29T08:06:16;4.25;;;1.42;;
11287;SDS011;5700;50.996;7.044;2022-07-29T08:09:18;3.88;;;1.38;;
11287;SDS011;5700;50.996;7.044;2022-07-29T08:12:19;4.38;;;1.73;;
11287;SDS011;5700;50.996;7.044;2022-07-29T08:15:21;8.13;;;1.73;;
11287;SDS011;5700;50.996;7.044;2022-07-29T08:18:22;3.83;;;1.23;;
11287;SDS011;5700;50.996;7.044;2022-07-29T08:21:26;7.75;;;1.30;;
11287;SDS011;5700;50.996;7.044;2022-07-29T08:24:27;2.42;;;1.20;;
11287;SDS011;5700;50.996;7.044;2022-07-29T08:27:43;4.85;;;1.52;;
11287;SDS011;5700;50.996;7.044;2022-07-29T08:30:44;2.63;;;1.23;;
11287;SDS011;5700;50.996;7.044;2022-07-29T08:33:45;2.63;;;1.38;;
11287;SDS011;5700;50.996;7.044;2022-07-29T08:36:48;4.70;;;1.67;;
11287;SDS011;5700;50.996;7.044;2022-07-29T08:39:50;3.08;;;1.15;;
11287;SDS011;5700;50.996;7.044;2022-07-29T08:42:51;6.82;;;1.40;;
11287;SDS011;5700;50.996;7.044;2022-07-29T08:45:52;4.47;;;1.23;;
11287;SDS011;5700;50.996;7.044;2022-07-29T08:48:54;13.40;;;1.75;;
11287;SDS011;5700;50.996;7.044;2022-07-29T08:51:57;4.65;;;1.50;;
11287;SDS011;5700;50.996;7.044;2022-07-29T08:54:59;2.35;;;1.00;;
11287;SDS011;5700;50.996;7.044;2022-07-29T08:58:01;6.10;;;1.38;;
11287;SDS011;5700;50.996;7.044;2022-07-29T09:01:03;5.07;;;1.30;;
11287;SDS011;5700;50.996;7.044;2022-07-29T09:04:06;2.42;;;1.08;;
11287;SDS011;5700;50.996;7.044;2022-07-29T09:07:13;5.82;;;1.40;;
11287;SDS011;5700;50.996;7.044;2022-07-29T09:10:15;4.00;;;1.00;;
11287;SDS011;5700;50.996;7.044;2022-07-29T09:13:17;5.88;;;1.60;;
11287;SDS011;5700;50.996;7.044;2022-07-29T09:16:18;4.90;;;1.42;;
11287;SDS011;5700;50.996;7.044;2022-07-29T09:19:22;5.82;;;1.70;;
11287;SDS011;5700;50.996;7.044;2022-07-29T09:22:29;3.58;;;1.55;;
11287;SDS011;5700;50.996;7.044;2022-07-29T09:25:33;4.05;;;1.50;;
11287;SDS011;5700;50.996;7.044;2022-07-29T09:28:34;1.98;;;1.08;;
11287;SDS011;5700;50.996;7.044;2022-07-29T09:31:43;6.03;;;1.45;;
11287;SDS011;5700;50.996;7.044;2022-07-29T09:34:45;8.60;;;1.92;;
11287;SDS011;5700;50.996;7.044;2022-07-29T09:37:48;7.22;;;1.83;;
11287;SDS011;5700;50.996;7.044;2022-07-29T09:40:55;6.55;;;1.60;;
11287;SDS011;5700;50.996;7.044;2022-07-29T09:43:58;6.30;;;1.75;;
11287;SDS011;5700;50.996;7.044;2022-07-29T09:47:00;4.88;;;1.88;;
11287;SDS011;5700;50.996;7.044;2022-07-29T09:50:06;4.20;;;1.50;;
11287;SDS011;5700;50.996;7.044;2022-07-29T09:53:09;6.00;;;1.63;;
11287;SDS011;5700;50.996;7.044;2022-07-29T09:56:11;5.68;;;1.90;;
11287;SDS011;5700;50.996;7.044;2022-07-29T09:59:14;8.63;;;2.20;;
11287;SDS011;5700;50.996;7.044;2022-07-29T10:02:15;9.43;;;2.03;;
11287;SDS011;5700;50.996;7.044;2022-07-29T10:05:19;6.15;;;2.38;;
11287;SDS011;5700;50.996;7.044;2022-07-29T10:08:25;7.30;;;2.38;;
11287;SDS011;5700;50.996;7.044;2022-07-29T10:11:27;5.68;;;2.15;;
11287;SDS011;5700;50.996;7.044;2022-07-29T10:14:29;9.48;;;2.17;;
11287;SDS011;5700;50.996;7.044;2022-07-29T10:17:31;10.38;;;2.97;;
11287;SDS011;5700;50.996;7.044;2022-07-29T10:20:32;8.07;;;2.47;;
11287;SDS011;5700;50.996;7.044;2022-07-29T10:23:35;7.80;;;2.22;;
11287;SDS011;5700;50.996;7.044;2022-07-29T10:26:37;7.20;;;2.45;;
11287;SDS011;5700;50.996;7.044;2022-07-29T10:29:40;9.40;;;2.40;;
11287;SDS011;5700;50.996;7.044;2022-07-29T10:32:48;6.15;;;2.42;;
11287;SDS011;5700;50.996;7.044;2022-07-29T10:36:02;8.30;;;3.15;;
11287;SDS011;5700;50.996;7.044;2022-07-29T10:39:12;9.38;;;2.85;;
11287;SDS011;5700;50.996;7.044;2022-07-29T10:42:20;8.50;;;2.47;;
11287;SDS011;5700;50.996;7.044;2022-07-29T10:45:24;6.32;;;2.58;;
11287;SDS011;5700;50.996;7.044;2022-07-29T10:48:25;8.80;;;3.85;;
11287;SDS011;5700;50.996;7.044;2022-07-29T10:51:33;10.25;;;3.53;;
11287;SDS011;5700;50.996;7.044;2022-07-29T10:54:53;10.05;;;3.35;;
11287;SDS011;5700;50.996;7.044;2022-07-29T10:58:10;16.33;;;3.40;;
11287;SDS011;5700;50.996;7.044;2022-07-29T11:01:28;15.63;;;3.67;;
11287;SDS011;5700;50.996;7.044;2022-07-29T11:11:31;12.48;;;3.35;;
11287;SDS011;5700;50.996;7.044;2022-07-29T11:18:06;6.40;;;2.58;;
11287;SDS011;5700;50.996;7.044;2022-07-29T11:21:09;7.90;;;2.85;;
11287;SDS011;5700;50.996;7.044;2022-07-29T11:24:38;7.03;;;2.35;;
11287;SDS011;5700;50.996;7.044;2022-07-29T11:27:40;8.40;;;2.42;;
11287;SDS011;5700;50.996;7.044;2022-07-29T11:30:50;6.68;;;2.10;;
11287;SDS011;5700;50.996;7.044;2022-07-29T11:33:52;6.10;;;1.95;;
11287;SDS011;5700;50.996;7.044;2022-07-29T11:40:18;8.02;;;2.05;;
11287;SDS011;5700;50.996;7.044;2022-07-29T11:46:53;4.90;;;1.77;;
11287;SDS011;5700;50.996;7.044;2022-07-29T11:49:55;5.63;;;2.15;;
11287;SDS011;5700;50.996;7.044;2022-07-29T11:52:58;9.07;;;2.00;;
11287;SDS011;5700;50.996;7.044;2022-07-29T11:56:00;11.93;;;1.85;;
11287;SDS011;5700;50.996;7.044;2022-07-29T11:59:03;6.20;;;1.70;;
11287;SDS011;5700;50.996;7.044;2022-07-29T12:02:06;7.32;;;1.90;;
11287;SDS011;5700;50.996;7.044;2022-07-29T12:05:09;8.18;;;2.17;;
11287;SDS011;5700;50.996;7.044;2022-07-29T12:08:12;4.20;;;1.65;;
11287;SDS011;5700;50.996;7.044;2022-07-29T12:11:16;6.18;;;1.98;;
11287;SDS011;5700;50.996;7.044;2022-07-29T12:14:25;4.40;;;1.83;;
11287;SDS011;5700;50.996;7.044;2022-07-29T12:17:29;3.80;;;1.20;;
11287;SDS011;5700;50.996;7.044;2022-07-29T12:20:32;6.43;;;1.55;;
11287;SDS011;5700;50.996;7.044;2022-07-29T12:23:34;1.70;;;1.15;;
11287;SDS011;5700;50.996;7.044;2022-07-29T12:26:35;2.97;;;1.08;;
11287;SDS011;5700;50.996;7.044;2022-07-29T12:29:37;4.25;;;1.45;;
11287;SDS011;5700;50.996;7.044;2022-07-29T12:32:41;3.58;;;1.70;;
11287;SDS011;5700;50.996;7.044;2022-07-29T12:35:48;5.65;;;1.95;;
11287;SDS011;5700;50.996;7.044;2022-07-29T12:38:51;4.00;;;1.55;;
11287;SDS011;5700;50.996;7.044;2022-07-29T12:41:53;5.35;;;1.45;;
11287;SDS011;5700;50.996;7.044;2022-07-29T12:44:54;4.47;;;1.42;;
11287;SDS011;5700;50.996;7.044;2022-07-29T12:47:57;5.43;;;1.52;;
11287;SDS011;5700;50.996;7.044;2022-07-29T12:51:00;4.40;;;1.38;;
11287;SDS011;5700;50.996;7.044;2022-07-29T12:54:03;2.35;;;1.30;;
11287;SDS011;5700;50.996;7.044;2022-07-29T12:57:06;6.63;;;1.50;;
11287;SDS011;5700;50.996;7.044;2022-07-29T13:00:08;3.40;;;1.63;;
11287;SDS011;5700;50.996;7.044;2022-07-29T13:03:14;4.38;;;1.52;;
11287;SDS011;5700;50.996;7.044;2022-07-29T13:09:37;4.97;;;1.45;;
11287;SDS011;5700;50.996;7.044;2022-07-29T13:12:39;2.78;;;1.25;;
11287;SDS011;5700;50.996;7.044;2022-07-29T13:16:04;2.83;;;1.58;;
11287;SDS011;5700;50.996;7.044;2022-07-29T13:19:10;4.90;;;1.65;;
11287;SDS011;5700;50.996;7.044;2022-07-29T13:22:13;5.03;;;1.40;;
11287;SDS011;5700;50.996;7.044;2022-07-29T13:25:23;4.15;;;1.25;;
11287;SDS011;5700;50.996;7.044;2022-07-29T13:28:25;10.63;;;2.40;;
11287;SDS011;5700;50.996;7.044;2022-07-29T13:31:26;3.08;;;1.10;;
11287;SDS011;5700;50.996;7.044;2022-07-29T13:34:29;4.22;;;1.75;;
11287;SDS011;5700;50.996;7.044;2022-07-29T13:37:31;2.72;;;1.20;;
11287;SDS011;5700;50.996;7.044;2022-07-29T13:40:34;1.70;;;1.13;;
11287;SDS011;5700;50.996;7.044;2022-07-29T13:43:35;3.78;;;1.73;;
11287;SDS011;5700;50.996;7.044;2022-07-29T13:46:37;5.50;;;1.90;;
11287;SDS011;5700;50.996;7.044;2022-07-29T13:49:39;2.92;;;1.35;;
11287;SDS011;5700;50.996;7.044;2022-07-29T13:52:41;5.72;;;1.40;;
11287;SDS011;5700;50.996;7.044;2022-07-29T13:55:42;6.80;;;1.60;;
11287;SDS011;5700;50.996;7.044;2022-07-29T13:58:44;3.47;;;1.27;;
11287;SDS011;5700;50.996;7.044;2022-07-29T14:01:45;6.93;;;1.60;;
11287;SDS011;5700;50.996;7.044;2022-07-29T14:04:49;4.75;;;1.88;;
11287;SDS011;5700;50.996;7.044;2022-07-29T14:07:50;4.55;;;1.65;;
11287;SDS011;5700;50.996;7.044;2022-07-29T14:10:52;6.22;;;1.70;;
11287;SDS011;5700;50.996;7.044;2022-07-29T14:13:53;6.78;;;1.95;;
11287;SDS011;5700;50.996;7.044;2022-07-29T14:16:55;6.15;;;2.00;;
11287;SDS011;5700;50.996;7.044;2022-07-29T14:19:57;5.50;;;1.60;;
11287;SDS011;5700;50.996;7.044;2022-07-29T14:22:59;7.22;;;2.50;;
11287;SDS011;5700;50.996;7.044;2022-07-29T14:26:00;7.68;;;1.80;;
11287;SDS011;5700;50.996;7.044;2022-07-29T14:29:02;5.93;;;1.67;;
11287;SDS011;5700;50.996;7.044;2022-07-29T14:32:03;2.03;;;1.20;;
11287;SDS011;5700;50.996;7.044;2022-07-29T14:35:07;6.13;;;1.80;;
11287;SDS011;5700;50.996;7.044;2022-07-29T14:38:09;5.18;;;1.90;;
11287;SDS011;5700;50.996;7.044;2022-07-29T14:41:10;5.40;;;1.60;;
11287;SDS011;5700;50.996;7.044;2022-07-29T14:44:12;6.25;;;1.80;;
11287;SDS011;5700;50.996;7.044;2022-07-29T14:47:13;4.75;;;1.83;;
11287;SDS011;5700;50.996;7.044;2022-07-29T14:50:16;3.90;;;1.88;;
11287;SDS011;5700;50.996;7.044;2022-07-29T14:53:19;7.85;;;2.10;;
11287;SDS011;5700;50.996;7.044;2022-07-29T14:56:20;4.28;;;2.00;;
11287;SDS011;5700;50.996;7.044;2022-07-29T14:59:22;6.95;;;1.65;;
11287;SDS011;5700;50.996;7.044;2022-07-29T15:02:23;4.90;;;2.10;;
11287;SDS011;5700;50.996;7.044;2022-07-29T15:05:26;9.18;;;2.05;;
11287;SDS011;5700;50.996;7.044;2022-07-29T15:08:27;3.47;;;1.60;;
11287;SDS011;5700;50.996;7.044;2022-07-29T15:11:30;3.67;;;1.45;;
11287;SDS011;5700;50.996;7.044;2022-07-29T15:14:32;7.50;;;1.85;;
11287;SDS011;5700;50.996;7.044;2022-07-29T15:17:33;6.25;;;1.83;;
11287;SDS011;5700;50.996;7.044;2022-07-29T15:20:36;3.78;;;1.42;;
11287;SDS011;5700;50.996;7.044;2022-07-29T15:23:38;4.93;;;1.58;;
11287;SDS011;5700;50.996;7.044;2022-07-29T15:26:39;7.55;;;2.10;;
11287;SDS011;5700;50.996;7.044;2022-07-29T15:29:42;6.15;;;2.28;;
11287;SDS011;5700;50.996;7.044;2022-07-29T15:32:44;5.47;;;1.70;;
11287;SDS011;5700;50.996;7.044;2022-07-29T15:35:47;7.82;;;1.90;;
11287;SDS011;5700;50.996;7.044;2022-07-29T15:38:48;5.38;;;2.03;;
11287;SDS011;5700;50.996;7.044;2022-07-29T15:41:50;8.02;;;1.80;;
11287;SDS011;5700;50.996;7.044;2022-07-29T15:44:52;3.90;;;1.75;;
11287;SDS011;5700;50.996;7.044;2022-07-29T15:47:53;3.63;;;1.52;;
11287;SDS011;5700;50.996;7.044;2022-07-29T15:50:56;5.10;;;1.60;;
11287;SDS011;5700;50.996;7.044;2022-07-29T15:53:58;2.92;;;1.48;;
11287;SDS011;5700;50.996;7.044;2022-07-29T15:56:59;5.60;;;2.00;;
11287;SDS011;5700;50.996;7.044;2022-07-29T16:00:01;4.70;;;1.98;;
11287;SDS011;5700;50.996;7.044;2022-07-29T16:03:02;5.63;;;1.48;;
11287;SDS011;5700;50.996;7.044;2022-07-29T16:06:05;4.25;;;1.90;;
11287;SDS011;5700;50.996;7.044;2022-07-29T16:09:07;6.38;;;2.25;;
11287;SDS011;5700;50.996;7.044;2022-07-29T16:12:09;6.53;;;2.08;;
11287;SDS011;5700;50.996;7.044;2022-07-29T16:15:10;6.25;;;1.92;;
11287;SDS011;5700;50.996;7.044;2022-07-29T16:18:12;6.90;;;1.90;;
11287;SDS011;5700;50.996;7.044;2022-07-29T16:21:15;5.95;;;1.85;;
11287;SDS011;5700;50.996;7.044;2022-07-29T16:24:16;4.95;;;1.80;;
11287;SDS011;5700;50.996;7.044;2022-07-29T16:27:18;4.78;;;1.73;;
11287;SDS011;5700;50.996;7.044;2022-07-29T16:30:23;7.22;;;1.80;;
11287;SDS011;5700;50.996;7.044;2022-07-29T16:33:25;3.50;;;1.80;;
11287;SDS011;5700;50.996;7.044;2022-07-29T16:36:28;10.23;;;2.20;;
11287;SDS011;5700;50.996;7.044;2022-07-29T16:39:30;14.07;;;2.85;;
11287;SDS011;5700;50.996;7.044;2022-07-29T16:42:31;6.45;;;1.95;;
11287;SDS011;5700;50.996;7.044;2022-07-29T16:45:33;9.63;;;1.50;;
11287;SDS011;5700;50.996;7.044;2022-07-29T16:48:35;5.13;;;1.48;;
11287;SDS011;5700;50.996;7.044;2022-07-29T16:51:38;3.97;;;1.75;;
11287;SDS011;5700;50.996;7.044;2022-07-29T16:54:40;7.57;;;2.00;;
11287;SDS011;5700;50.996;7.044;2022-07-29T16:57:42;6.50;;;1.73;;
11287;SDS011;5700;50.996;7.044;2022-07-29T17:00:44;3.60;;;1.80;;
11287;SDS011;5700;50.996;7.044;2022-07-29T17:03:45;5.07;;;1.80;;
11287;SDS011;5700;50.996;7.044;2022-07-29T17:07:02;5.78;;;1.77;;
11287;SDS011;5700;50.996;7.044;2022-07-29T17:10:04;7.25;;;2.25;;
11287;SDS011;5700;50.996;7.044;2022-07-29T17:13:07;11.90;;;2.55;;
11287;SDS011;5700;50.996;7.044;2022-07-29T17:16:08;5.80;;;1.80;;
11287;SDS011;5700;50.996;7.044;2022-07-29T17:19:09;8.27;;;1.98;;
11287;SDS011;5700;50.996;7.044;2022-07-29T17:22:12;3.70;;;1.63;;
11287;SDS011;5700;50.996;7.044;2022-07-29T17:25:14;4.35;;;1.73;;
11287;SDS011;5700;50.996;7.044;2022-07-29T17:28:15;8.07;;;2.05;;
11287;SDS011;5700;50.996;7.044;2022-07-29T17:31:16;11.68;;;2.60;;
11287;SDS011;5700;50.996;7.044;2022-07-29T17:34:18;4.65;;;1.70;;
11287;SDS011;5700;50.996;7.044;2022-07-29T17:37:20;9.02;;;2.15;;
11287;SDS011;5700;50.996;7.044;2022-07-29T17:40:22;15.60;;;2.72;;
11287;SDS011;5700;50.996;7.044;2022-07-29T17:43:24;4.88;;;1.67;;
11287;SDS011;5700;50.996;7.044;2022-07-29T17:46:25;3.38;;;1.60;;
11287;SDS011;5700;50.996;7.044;2022-07-29T17:49:27;5.72;;;1.60;;
11287;SDS011;5700;50.996;7.044;2022-07-29T17:52:30;5.55;;;1.70;;
11287;SDS011;5700;50.996;7.044;2022-07-29T17:55:31;5.80;;;1.42;;
11287;SDS011;5700;50.996;7.044;2022-07-29T17:58:33;2.38;;;1.25;;
11287;SDS011;5700;50.996;7.044;2022-07-29T18:01:34;4.75;;;1.95;;
11287;SDS011;5700;50.996;7.044;2022-07-29T18:04:37;5.32;;;1.73;;
11287;SDS011;5700;50.996;7.044;2022-07-29T18:07:39;6.75;;;2.35;;
11287;SDS011;5700;50.996;7.044;2022-07-29T18:10:41;5.10;;;1.67;;
11287;SDS011;5700;50.996;7.044;2022-07-29T18:13:42;3.88;;;2.00;;
11287;SDS011;5700;50.996;7.044;2022-07-29T18:16:44;5.40;;;1.63;;
11287;SDS011;5700;50.996;7.044;2022-07-29T18:19:45;7.68;;;2.35;;
11287;SDS011;5700;50.996;7.044;2022-07-29T18:22:48;5.18;;;2.00;;
11287;SDS011;5700;50.996;7.044;2022-07-29T18:25:50;3.22;;;1.80;;
11287;SDS011;5700;50.996;7.044;2022-07-29T18:28:51;6.63;;;1.67;;
11287;SDS011;5700;50.996;7.044;2022-07-29T18:31:53;3.20;;;1.73;;
11287;SDS011;5700;50.996;7.044;2022-07-29T18:34:54;3.63;;;1.40;;
11287;SDS011;5700;50.996;7.044;2022-07-29T18:37:57;3.83;;;1.60;;
11287;SDS011;5700;50.996;7.044;2022-07-29T18:40:58;3.83;;;1.50;;
11287;SDS011;5700;50.996;7.044;2022-07-29T18:44:00;3.17;;;1.63;;
11287;SDS011;5700;50.996;7.044;2022-07-29T18:47:01;7.28;;;2.33;;
11287;SDS011;5700;50.996;7.044;2022-07-29T18:50:03;3.30;;;1.65;;
11287;SDS011;5700;50.996;7.044;2022-07-29T18:53:06;3.97;;;1.90;;
11287;SDS011;5700;50.996;7.044;2022-07-29T18:56:08;5.53;;;1.50;;
11287;SDS011;5700;50.996;7.044;2022-07-29T18:59:10;4.45;;;1.73;;